Kellyton, Alabama
Current Conditions -  °F | °C
As of 11:55 PM on Saturday 22 Nov 2014 (Local Time) from KALX Reporting Station
Light Rain Light Rain  
Wind Chill: 57°   Ceiling: 1900
Heat Index: 57°   Visibility: 10mi
Dew Point: 51°   Wind: 5mph
Humidity: 81%   Direction: 100°E
Pressure: 30.09"   Gusts: NA
Location:  32.98°N, 86.03°W
Report Text: KALX 230555Z AUTO 10004KT 10SM -RA OVC019 14/11 A3009 RMK AO2 60001 T01370105 10170 20137
Loading
Personal Weather Stations






























Interactive Weather Map New forecast layout! Learn more

10-Day Weather Forecast

Advertisements
Track Severe Weather on mobile